首页
METAR-TAF:

METAR-TAF

机场 :

Double Eagle II Airport

阿布奎基, 新墨西哥州, 美国

纬度: 35-08-42N, 经度: 106-47-42W, 海拔: 1779米

当前天气观测

该预报发布于23分钟前的12:47 UTC
风速5节,风向西转西北
温度 19°C
湿度 68%
气压 1022 hPa
能見度: 16.1公里
天空无云

METAR: KAEG 251247Z 30005KT 10SM CLR 19/13 A3018

时间: 07:10 (13:10 UTC)

预报

该预报发布于1小时和50分钟前的11:20 UTC
预报有效从25日的 12点(UTC)到 26日的 12点(UTC)
风速5节,风向多变
能見度: 10公里
散云层高于15000英尺
从 25日的 1700点(UTC)
风速8节,风向西
能見度: 10公里
少量云层高于15000英尺
从 26日的 0100点(UTC)
风速6节,风向多变
能見度: 10公里
散云层高于15000英尺

TAF: KAEG 251120Z 2512/2612 VRB05KT P6SM SCT150 FM251700 28008KT P6SM FEW150 FM260100 VRB06KT P6SM SCT150

超过4000个机场的气象观测和天气预报(METAR&TAF报告)。

可查询的气象台以黄色和红色小点在地图上表示。

将鼠标移到小点上方,可查看气象台名称。

然后点击查看天气观测和预报。

如需切换地图:点击带黑十字的绿色按钮放大地图;点击带横线的绿色按钮缩小地图;或者点击绿色箭头查看邻近地区的地图。


METAR-TAF: